createdAt,value
2023-02-05T00:00:47.168Z,-2.11
2023-02-05T00:03:14.088Z,-1.96
2023-02-05T00:05:40.862Z,-1.93
2023-02-05T00:08:07.704Z,-1.96
2023-02-05T00:10:34.597Z,-1.87
2023-02-05T00:13:01.524Z,-1.88
2023-02-05T00:15:28.718Z,-1.89
2023-02-05T00:17:55.608Z,-1.88
2023-02-05T00:20:22.485Z,-1.99
2023-02-05T00:22:49.301Z,-1.99
2023-02-05T00:25:16.763Z,-1.96
2023-02-05T00:27:43.780Z,-1.88
2023-02-05T00:30:10.963Z,-2.00
2023-02-05T00:32:37.963Z,-1.96
2023-02-05T00:35:05.051Z,-2.08
2023-02-05T00:37:31.951Z,-2.13
2023-02-05T00:39:59.147Z,-2.16
2023-02-05T00:42:26.044Z,-2.35
2023-02-05T00:44:53.692Z,-2.37
2023-02-05T00:47:20.625Z,-2.47
2023-02-05T00:49:47.504Z,-2.40
2023-02-05T00:52:14.401Z,-2.42
2023-02-05T00:54:41.541Z,-2.37
2023-02-05T00:57:08.721Z,-2.36
2023-02-05T00:59:35.700Z,-2.42
2023-02-05T01:02:02.513Z,-2.40
2023-02-05T01:04:29.355Z,-2.44
2023-02-05T01:06:56.188Z,-2.45
2023-02-05T01:09:23.479Z,-2.43
2023-02-05T01:11:50.430Z,-2.43
2023-02-05T01:14:17.246Z,-2.55
2023-02-05T01:16:44.069Z,-2.48
2023-02-05T01:19:11.229Z,-2.54
2023-02-05T01:21:38.357Z,-2.44
2023-02-05T01:24:06.000Z,-2.44
2023-02-05T01:26:32.868Z,-2.54
2023-02-05T01:28:59.574Z,-2.56
2023-02-05T01:31:28.374Z,-2.79
2023-02-05T01:33:56.184Z,-2.62
2023-02-05T01:36:23.110Z,-2.66
2023-02-05T01:38:49.996Z,-2.63
2023-02-05T01:41:16.879Z,-2.62
2023-02-05T01:44:06.716Z,-2.65
2023-02-05T01:46:34.587Z,-2.68
2023-02-05T01:49:02.150Z,-2.66
2023-02-05T01:51:31.951Z,-2.73
2023-02-05T01:53:58.927Z,-2.63
2023-02-05T01:56:37.721Z,-2.68
2023-02-05T01:59:09.552Z,-2.61
2023-02-05T02:01:37.826Z,-2.57
2023-02-05T02:04:05.375Z,-2.53
2023-02-05T02:06:40.526Z,-2.55
2023-02-05T02:09:07.960Z,-2.64
2023-02-05T02:11:37.455Z,-2.89
2023-02-05T02:14:07.020Z,-2.80
2023-02-05T02:16:35.976Z,-2.68
2023-02-05T02:19:07.254Z,-2.72
2023-02-05T02:21:34.053Z,-2.77
2023-02-05T02:24:09.990Z,-2.89
2023-02-05T02:26:39.676Z,-2.85
2023-02-05T02:29:08.165Z,-2.83
2023-02-05T02:31:53.130Z,-3.02
2023-02-05T02:34:30.640Z,-3.19
2023-02-05T02:37:02.511Z,-3.21
2023-02-05T02:39:38.567Z,-3.46
2023-02-05T02:42:08.626Z,-3.39
2023-02-05T02:44:35.401Z,-3.41
2023-02-05T02:47:06.254Z,-3.39
2023-02-05T02:49:36.568Z,-3.27
2023-02-05T02:52:05.697Z,-3.33
2023-02-05T02:54:33.821Z,-3.39
2023-02-05T02:57:01.885Z,-3.56
2023-02-05T02:59:29.979Z,-3.61
2023-02-05T03:02:00.309Z,-3.77
2023-02-05T03:04:44.701Z,-3.84
2023-02-05T03:07:18.560Z,-3.79
2023-02-05T03:10:08.174Z,-3.78
2023-02-05T03:12:35.244Z,-3.82
2023-02-05T03:15:02.231Z,-3.82
2023-02-05T03:17:29.692Z,-3.80
2023-02-05T03:20:01.332Z,-3.78
2023-02-05T03:22:28.747Z,-3.74
2023-02-05T03:24:55.590Z,-3.76
2023-02-05T03:27:23.617Z,-3.83
2023-02-05T03:29:51.482Z,-3.84
2023-02-05T03:32:24.222Z,-3.96
2023-02-05T03:34:52.517Z,-3.86
2023-02-05T03:37:40.216Z,-3.96
2023-02-05T03:40:13.277Z,-3.91
2023-02-05T03:42:40.284Z,-3.93
2023-02-05T03:45:22.310Z,-3.76
2023-02-05T03:48:00.554Z,-3.79
2023-02-05T03:50:46.407Z,-3.84
2023-02-05T03:53:31.160Z,-3.92
2023-02-05T03:56:06.545Z,-3.96
2023-02-05T03:58:38.936Z,-3.87
2023-02-05T04:01:09.038Z,-3.94
2023-02-05T04:03:36.010Z,-3.90
2023-02-05T04:06:02.932Z,-3.87
2023-02-05T04:08:29.836Z,-3.89
2023-02-05T04:10:57.349Z,-3.98
2023-02-05T04:13:25.154Z,-4.07
2023-02-05T04:15:52.321Z,-3.90
2023-02-05T04:18:19.617Z,-3.92
2023-02-05T04:20:47.960Z,-3.93
2023-02-05T04:23:18.179Z,-3.91
2023-02-05T04:25:45.523Z,-3.83
2023-02-05T04:28:17.230Z,-3.85
2023-02-05T04:30:44.938Z,-3.90
2023-02-05T04:33:11.968Z,-3.90
2023-02-05T04:35:39.603Z,-3.83
2023-02-05T04:38:06.641Z,-3.92
2023-02-05T04:40:33.413Z,-4.12
2023-02-05T04:43:00.406Z,-4.04
2023-02-05T04:45:31.158Z,-3.98
2023-02-05T04:47:59.695Z,-3.98
2023-02-05T04:50:27.105Z,-3.91
2023-02-05T04:52:53.965Z,-3.92
2023-02-05T04:55:20.802Z,-3.95
2023-02-05T04:57:47.722Z,-3.94
2023-02-05T05:00:16.577Z,-4.10
2023-02-05T05:02:43.644Z,-3.99
2023-02-05T05:05:12.134Z,-4.14
2023-02-05T05:07:39.025Z,-4.35
2023-02-05T05:10:07.358Z,-4.62
2023-02-05T05:12:34.718Z,-4.64
2023-02-05T05:15:01.862Z,-4.70
2023-02-05T05:17:28.772Z,-4.66
2023-02-05T05:19:55.602Z,-4.62
2023-02-05T05:22:23.071Z,-4.83
2023-02-05T05:24:49.881Z,-4.88
2023-02-05T05:27:18.770Z,-4.85
2023-02-05T05:29:46.673Z,-4.88
2023-02-05T05:32:14.111Z,-4.71
2023-02-05T05:34:41.044Z,-4.69
2023-02-05T05:37:07.918Z,-4.65
2023-02-05T05:39:53.090Z,-4.62
2023-02-05T05:42:38.785Z,-4.63
2023-02-05T05:45:05.982Z,-4.63
2023-02-05T05:47:32.866Z,-4.72
2023-02-05T05:49:59.725Z,-4.63
2023-02-05T05:52:26.774Z,-4.57
2023-02-05T05:54:53.553Z,-4.54
2023-02-05T05:57:21.224Z,-4.75
2023-02-05T05:59:47.956Z,-4.69
2023-02-05T06:02:14.936Z,-4.60
2023-02-05T06:04:41.830Z,-4.58
2023-02-05T06:07:08.792Z,-4.75
2023-02-05T06:09:35.629Z,-4.76
2023-02-05T06:12:02.504Z,-4.74
2023-02-05T06:14:29.519Z,-4.73
2023-02-05T06:16:56.420Z,-4.86
2023-02-05T06:19:23.827Z,-4.81
2023-02-05T06:21:50.723Z,-4.74
2023-02-05T06:24:17.617Z,-4.95
2023-02-05T06:26:44.491Z,-4.81
2023-02-05T06:29:11.332Z,-4.75
2023-02-05T06:31:38.317Z,-4.71
2023-02-05T06:34:05.271Z,-4.68
2023-02-05T06:36:32.152Z,-4.82
2023-02-05T06:38:59.023Z,-4.85
2023-02-05T06:41:25.965Z,-4.81
2023-02-05T06:43:52.838Z,-4.80
2023-02-05T06:46:19.703Z,-4.81
2023-02-05T06:48:46.464Z,-4.69
2023-02-05T06:51:13.783Z,-4.70
2023-02-05T06:53:40.700Z,-4.53
2023-02-05T06:56:07.884Z,-5.07
2023-02-05T06:58:34.690Z,-4.89
2023-02-05T07:01:02.423Z,-4.80
2023-02-05T07:03:29.275Z,-4.83
2023-02-05T07:05:56.134Z,-4.73
2023-02-05T07:08:23.018Z,-4.68
2023-02-05T07:10:49.865Z,-4.67
2023-02-05T07:13:16.697Z,-4.51
2023-02-05T07:15:44.452Z,-4.46
2023-02-05T07:18:11.376Z,-4.43
2023-02-05T07:20:38.263Z,-4.42
2023-02-05T07:23:05.936Z,-4.32
2023-02-05T07:25:38.081Z,-4.40
2023-02-05T07:28:05.607Z,-4.27
2023-02-05T07:30:32.534Z,-4.23
2023-02-05T07:33:01.010Z,-4.27
2023-02-05T07:35:27.920Z,-4.24
2023-02-05T07:37:55.190Z,-4.20
2023-02-05T07:40:22.166Z,-4.28
2023-02-05T07:42:49.000Z,-4.16
2023-02-05T07:45:15.895Z,-4.13
2023-02-05T07:47:42.825Z,-4.10
2023-02-05T07:50:09.821Z,-3.98
2023-02-05T07:52:36.628Z,-3.82
2023-02-05T07:55:03.499Z,-3.73
2023-02-05T07:57:30.295Z,-3.74
2023-02-05T07:59:57.104Z,-3.92
2023-02-05T08:02:24.018Z,-3.94
2023-02-05T08:04:51.013Z,-3.94
2023-02-05T08:07:18.057Z,-3.86
2023-02-05T08:09:44.885Z,-3.82
2023-02-05T08:12:11.732Z,-3.87
2023-02-05T08:14:46.055Z,-3.80
2023-02-05T08:17:12.942Z,-3.71
2023-02-05T08:19:41.476Z,-3.61
2023-02-05T08:22:08.353Z,-3.61
2023-02-05T08:24:35.334Z,-3.60
2023-02-05T08:27:02.191Z,-3.59
2023-02-05T08:29:29.166Z,-3.64
2023-02-05T08:31:56.292Z,-3.55
2023-02-05T08:34:23.215Z,-3.63
2023-02-05T08:36:49.981Z,-3.65
2023-02-05T08:39:16.848Z,-3.67
2023-02-05T08:41:43.709Z,-3.70
2023-02-05T08:44:10.573Z,-3.68
2023-02-05T08:46:49.238Z,-3.67
2023-02-05T08:49:17.634Z,-3.64
2023-02-05T08:51:44.491Z,-3.80
2023-02-05T08:54:13.479Z,-4.02
2023-02-05T08:56:40.949Z,-4.10
2023-02-05T08:59:09.243Z,-4.01
2023-02-05T09:01:43.224Z,-3.92
2023-02-05T09:04:14.365Z,-3.84
2023-02-05T09:06:41.703Z,-3.71
2023-02-05T09:09:08.878Z,-3.72
2023-02-05T09:11:35.617Z,-3.56
2023-02-05T09:14:02.415Z,-3.55
2023-02-05T09:16:30.626Z,-3.50
2023-02-05T09:18:58.630Z,-3.35
2023-02-05T09:21:26.073Z,-3.24
2023-02-05T09:23:53.862Z,-3.22
2023-02-05T09:26:21.107Z,-3.17
2023-02-05T09:28:47.894Z,-3.08
2023-02-05T09:31:16.109Z,-2.96
2023-02-05T09:33:46.276Z,-2.99
2023-02-05T09:36:17.689Z,-2.88
2023-02-05T09:38:45.956Z,-2.77
2023-02-05T09:41:12.932Z,-2.74
2023-02-05T09:43:42.721Z,-2.69
2023-02-05T09:46:12.672Z,-2.61
2023-02-05T09:48:39.591Z,-2.55
2023-02-05T09:51:09.906Z,-2.50
2023-02-05T09:53:40.652Z,-2.53
2023-02-05T09:56:15.438Z,-2.70
2023-02-05T09:58:44.935Z,-2.59
2023-02-05T10:01:19.389Z,-2.63
2023-02-05T10:03:47.312Z,-2.66
2023-02-05T10:06:21.443Z,-2.52
2023-02-05T10:08:48.375Z,-2.42
2023-02-05T10:11:31.894Z,-2.58
2023-02-05T10:14:22.067Z,-2.44
2023-02-05T10:17:15.526Z,-2.55
2023-02-05T10:19:48.256Z,-2.52
2023-02-05T10:22:26.338Z,-2.50
2023-02-05T10:24:53.173Z,-2.41
2023-02-05T10:27:22.004Z,-2.49
2023-02-05T10:29:48.823Z,-2.59
2023-02-05T10:32:22.994Z,-2.49
2023-02-05T10:34:55.735Z,-2.42
2023-02-05T10:37:30.411Z,-2.38
2023-02-05T10:39:58.126Z,-2.41
2023-02-05T10:42:29.020Z,-2.44
2023-02-05T10:45:12.982Z,-2.42
2023-02-05T10:47:39.810Z,-2.34
2023-02-05T10:50:06.904Z,-2.37
2023-02-05T10:52:33.682Z,-2.28
2023-02-05T10:55:00.684Z,-2.28
2023-02-05T10:57:31.435Z,-2.55
2023-02-05T10:59:59.793Z,-2.61
2023-02-05T11:02:29.960Z,-2.65
2023-02-05T11:05:00.485Z,-2.67
2023-02-05T11:07:35.785Z,-2.98
2023-02-05T11:10:15.938Z,-2.95
2023-02-05T11:12:43.986Z,-3.02
2023-02-05T11:15:19.264Z,-3.09
2023-02-05T11:17:50.170Z,-3.00
2023-02-05T11:20:17.152Z,-3.03
2023-02-05T11:22:46.154Z,-3.10
2023-02-05T11:25:17.549Z,-3.26
2023-02-05T11:27:55.009Z,-3.37
2023-02-05T11:30:52.094Z,-3.51
2023-02-05T11:33:19.550Z,-3.68
2023-02-05T11:35:52.946Z,-3.61
2023-02-05T11:38:42.491Z,-3.61
2023-02-05T11:41:10.307Z,-3.68
2023-02-05T11:43:49.856Z,-3.60
2023-02-05T11:46:18.967Z,-3.58
2023-02-05T11:48:51.727Z,-3.50
2023-02-05T11:51:29.148Z,-3.45
2023-02-05T11:53:57.809Z,-3.43
2023-02-05T11:56:25.643Z,-3.44
2023-02-05T11:59:00.210Z,-3.41
2023-02-05T12:01:32.667Z,-3.29
2023-02-05T12:04:11.873Z,-3.33
2023-02-05T12:06:42.764Z,-3.36
2023-02-05T12:09:12.782Z,-3.40
2023-02-05T12:12:01.209Z,-3.34
2023-02-05T12:14:40.551Z,-3.51
2023-02-05T12:17:26.312Z,-3.49
2023-02-05T12:20:11.946Z,-3.43
2023-02-05T12:22:50.758Z,-3.36
2023-02-05T12:25:20.690Z,-3.26
2023-02-05T12:28:06.243Z,-3.19
2023-02-05T12:30:48.566Z,-3.11
2023-02-05T12:33:34.118Z,-2.93
2023-02-05T12:36:01.056Z,-3.10
2023-02-05T12:38:32.745Z,-3.41
2023-02-05T12:41:15.454Z,-3.27
2023-02-05T12:43:45.627Z,-3.16
2023-02-05T12:46:51.029Z,-3.04
2023-02-05T12:49:33.016Z,-3.17
2023-02-05T12:52:02.565Z,-3.23
2023-02-05T12:54:58.727Z,-3.16
2023-02-05T12:57:38.270Z,-3.11
2023-02-05T13:00:13.911Z,-3.23
2023-02-05T13:02:51.241Z,-3.20
2023-02-05T13:05:18.081Z,-3.12
2023-02-05T13:08:07.741Z,-3.06
2023-02-05T13:10:39.952Z,-3.06
2023-02-05T13:13:11.583Z,-3.00
2023-02-05T13:15:42.856Z,-3.02
2023-02-05T13:18:19.400Z,-3.02
2023-02-05T13:21:08.380Z,-2.89
2023-02-05T13:23:54.712Z,-2.87
2023-02-05T13:26:25.763Z,-2.98
2023-02-05T13:29:00.537Z,-3.01
2023-02-05T13:31:38.805Z,-3.17
2023-02-05T13:34:06.867Z,-3.50
2023-02-05T13:36:42.618Z,-3.40
2023-02-05T13:39:13.581Z,-3.50
2023-02-05T13:41:41.934Z,-3.56
2023-02-05T13:44:27.637Z,-3.39
2023-02-05T13:46:58.342Z,-3.52
2023-02-05T13:49:30.886Z,-3.43
2023-02-05T13:52:11.368Z,-3.41
2023-02-05T13:54:38.244Z,-3.41
2023-02-05T13:57:05.047Z,-3.31
2023-02-05T13:59:38.152Z,-3.61
2023-02-05T14:02:24.952Z,-3.75
2023-02-05T14:04:54.974Z,-3.77
2023-02-05T14:07:27.552Z,-3.81
2023-02-05T14:10:00.805Z,-3.72
2023-02-05T14:12:34.232Z,-3.67
2023-02-05T14:15:16.435Z,-3.71
2023-02-05T14:17:43.279Z,-3.63
2023-02-05T14:20:25.674Z,-3.53
2023-02-05T14:22:53.694Z,-3.63
2023-02-05T14:25:36.731Z,-3.55
2023-02-05T14:28:16.277Z,-3.48
2023-02-05T14:30:53.754Z,-3.46
2023-02-05T14:33:29.029Z,-3.34
2023-02-05T14:36:21.036Z,-3.60
2023-02-05T14:38:51.055Z,-3.51
2023-02-05T14:41:20.009Z,-3.43
2023-02-05T14:44:07.056Z,-3.39
2023-02-05T14:46:40.275Z,-3.36
2023-02-05T14:49:19.456Z,-3.29
2023-02-05T14:51:51.700Z,-3.28
2023-02-05T14:54:21.567Z,-3.28
2023-02-05T14:56:51.362Z,-3.32
2023-02-05T14:59:30.443Z,-3.50
2023-02-05T15:01:59.509Z,-3.45
2023-02-05T15:04:43.864Z,-3.38
2023-02-05T15:07:36.000Z,-3.45
2023-02-05T15:10:05.782Z,-3.66
2023-02-05T15:12:53.987Z,-3.49
2023-02-05T15:15:33.471Z,-3.54
2023-02-05T15:18:16.111Z,-3.45
2023-02-05T15:20:47.588Z,-3.52
2023-02-05T15:23:29.108Z,-3.46
2023-02-05T15:26:01.676Z,-3.56
2023-02-05T15:28:34.138Z,-3.50
2023-02-05T15:31:19.416Z,-3.57
2023-02-05T15:33:52.100Z,-4.03
2023-02-05T15:36:28.537Z,-3.95
2023-02-05T15:39:07.258Z,-3.93
2023-02-05T15:41:36.194Z,-3.85
2023-02-05T15:44:04.166Z,-3.84
2023-02-05T15:46:33.158Z,-3.91
2023-02-05T15:49:00.930Z,-3.82
2023-02-05T15:51:33.334Z,-3.81
2023-02-05T15:54:01.865Z,-4.07
2023-02-05T15:56:35.593Z,-4.03
2023-02-05T15:59:06.470Z,-4.21
2023-02-05T16:01:45.163Z,-4.26
2023-02-05T16:04:19.392Z,-4.60
2023-02-05T16:06:46.386Z,-4.76
2023-02-05T16:09:17.578Z,-4.62
2023-02-05T16:11:45.179Z,-4.61
2023-02-05T16:14:13.719Z,-4.86
2023-02-05T16:16:43.937Z,-4.79
2023-02-05T16:19:16.461Z,-4.93
2023-02-05T16:21:48.543Z,-5.16
2023-02-05T16:24:23.406Z,-5.00
2023-02-05T16:26:54.745Z,-4.96
2023-02-05T16:29:29.625Z,-5.07
2023-02-05T16:32:00.372Z,-5.03
2023-02-05T16:34:27.896Z,-5.20
2023-02-05T16:36:58.154Z,-5.30
2023-02-05T16:39:29.731Z,-5.35
2023-02-05T16:42:02.940Z,-5.37
2023-02-05T16:44:35.388Z,-5.35
2023-02-05T16:47:06.510Z,-5.42
2023-02-05T16:49:33.509Z,-5.43
2023-02-05T16:52:00.444Z,-5.37
2023-02-05T16:54:28.624Z,-5.36
2023-02-05T16:56:55.381Z,-5.65
2023-02-05T16:59:28.481Z,-5.47
2023-02-05T17:01:55.519Z,-5.38
2023-02-05T17:04:27.127Z,-5.47
2023-02-05T17:06:56.967Z,-5.69
2023-02-05T17:09:37.567Z,-5.46
2023-02-05T17:12:19.806Z,-5.45
2023-02-05T17:14:57.620Z,-5.45
2023-02-05T17:17:25.952Z,-5.50
2023-02-05T17:20:21.938Z,-5.48
2023-02-05T17:23:03.963Z,-5.34
2023-02-05T17:25:33.574Z,-5.36
2023-02-05T17:28:02.563Z,-5.44
2023-02-05T17:30:29.624Z,-5.53
2023-02-05T17:32:56.416Z,-5.48
2023-02-05T17:35:24.823Z,-5.56
2023-02-05T17:37:52.415Z,-5.66
2023-02-05T17:40:19.793Z,-5.66
2023-02-05T17:42:47.572Z,-5.64
2023-02-05T17:45:14.337Z,-5.59
2023-02-05T17:47:41.853Z,-5.64
2023-02-05T17:50:09.647Z,-5.56
2023-02-05T17:52:36.595Z,-5.50
2023-02-05T17:55:04.165Z,-5.55
2023-02-05T17:57:35.132Z,-5.71
2023-02-05T18:00:02.069Z,-5.89
2023-02-05T18:02:38.905Z,-6.00
2023-02-05T18:05:06.137Z,-5.81
2023-02-05T18:07:53.185Z,-5.90
2023-02-05T18:10:23.311Z,-5.93
2023-02-05T18:12:50.641Z,-5.93
2023-02-05T18:15:17.572Z,-5.91
2023-02-05T18:17:44.590Z,-5.92
2023-02-05T18:20:12.646Z,-5.96
2023-02-05T18:22:39.540Z,-6.05
2023-02-05T18:25:06.722Z,-6.00
2023-02-05T18:27:33.739Z,-5.92
2023-02-05T18:30:00.592Z,-5.97
2023-02-05T18:32:28.092Z,-5.88
2023-02-05T18:34:55.001Z,-6.10
2023-02-05T18:37:22.021Z,-5.97
2023-02-05T18:39:52.563Z,-6.14
2023-02-05T18:42:19.401Z,-5.99
2023-02-05T18:44:46.372Z,-5.99
2023-02-05T18:47:14.023Z,-6.00
2023-02-05T18:49:41.600Z,-6.24
2023-02-05T18:52:09.352Z,-6.30
2023-02-05T18:54:36.303Z,-6.39
2023-02-05T18:57:03.389Z,-6.47
2023-02-05T18:59:30.205Z,-6.30
2023-02-05T19:01:57.391Z,-6.43
2023-02-05T19:04:25.892Z,-6.33
2023-02-05T19:06:53.720Z,-6.48
2023-02-05T19:09:22.028Z,-6.43
2023-02-05T19:11:49.580Z,-6.41
2023-02-05T19:14:17.479Z,-6.30
2023-02-05T19:16:45.057Z,-6.26
2023-02-05T19:19:17.503Z,-6.28
2023-02-05T19:21:45.130Z,-6.26
2023-02-05T19:24:13.114Z,-6.38
2023-02-05T19:26:42.139Z,-6.35
2023-02-05T19:29:12.062Z,-6.27
2023-02-05T19:31:38.961Z,-6.29
2023-02-05T19:34:06.381Z,-6.24
2023-02-05T19:36:33.529Z,-6.25
2023-02-05T19:39:01.312Z,-6.33
2023-02-05T19:41:28.730Z,-6.51
2023-02-05T19:43:59.630Z,-6.39
2023-02-05T19:46:28.119Z,-6.27
2023-02-05T19:48:56.046Z,-6.45
2023-02-05T19:51:23.028Z,-6.64
2023-02-05T19:53:50.040Z,-6.63
2023-02-05T19:56:18.649Z,-6.57
2023-02-05T19:58:47.043Z,-6.52
2023-02-05T20:01:24.608Z,-6.50
2023-02-05T20:03:52.668Z,-6.39
2023-02-05T20:06:20.652Z,-6.51
2023-02-05T20:08:48.295Z,-6.43
2023-02-05T20:11:15.381Z,-6.70
2023-02-05T20:13:42.752Z,-6.63
2023-02-05T20:16:12.083Z,-6.76
2023-02-05T20:18:39.473Z,-6.99
2023-02-05T20:21:11.111Z,-6.76
2023-02-05T20:23:38.166Z,-6.81
2023-02-05T20:26:07.392Z,-6.97
2023-02-05T20:28:35.939Z,-6.99
2023-02-05T20:31:21.570Z,-6.93
2023-02-05T20:33:50.197Z,-6.80
2023-02-05T20:36:17.108Z,-6.76
2023-02-05T20:38:44.040Z,-6.66
2023-02-05T20:41:12.239Z,-6.69
2023-02-05T20:43:39.243Z,-6.76
2023-02-05T20:46:06.711Z,-6.72
2023-02-05T20:48:33.683Z,-6.76
2023-02-05T20:51:06.718Z,-6.98
2023-02-05T20:53:33.881Z,-6.90
2023-02-05T20:56:01.741Z,-7.09
2023-02-05T20:58:28.542Z,-6.96
2023-02-05T21:00:55.684Z,-7.01
2023-02-05T21:03:22.639Z,-7.01
2023-02-05T21:05:49.532Z,-6.89
2023-02-05T21:08:16.315Z,-6.76
2023-02-05T21:10:43.140Z,-6.68
2023-02-05T21:13:09.895Z,-6.71
2023-02-05T21:15:36.858Z,-6.62
2023-02-05T21:18:03.739Z,-6.73
2023-02-05T21:20:30.588Z,-6.75
2023-02-05T21:22:57.428Z,-6.71
2023-02-05T21:25:24.369Z,-6.56
2023-02-05T21:27:51.382Z,-6.50
2023-02-05T21:30:18.446Z,-6.50
2023-02-05T21:32:45.498Z,-6.42
2023-02-05T21:35:12.312Z,-6.44
2023-02-05T21:37:39.285Z,-6.37
2023-02-05T21:40:09.659Z,-6.50
2023-02-05T21:42:36.763Z,-6.38
2023-02-05T21:45:04.143Z,-6.38
2023-02-05T21:47:31.006Z,-6.30
2023-02-05T21:49:57.828Z,-6.31
2023-02-05T21:52:24.726Z,-6.36
2023-02-05T21:54:51.781Z,-6.20
2023-02-05T21:57:18.984Z,-6.36
2023-02-05T21:59:45.894Z,-6.24
2023-02-05T22:02:12.912Z,-6.30
2023-02-05T22:04:39.892Z,-6.43
2023-02-05T22:07:06.900Z,-6.35
2023-02-05T22:09:33.917Z,-6.28
2023-02-05T22:12:04.089Z,-6.38
2023-02-05T22:14:31.328Z,-6.40
2023-02-05T22:16:58.224Z,-6.41
2023-02-05T22:19:25.956Z,-6.37
2023-02-05T22:21:53.255Z,-6.34
2023-02-05T22:24:21.060Z,-6.45
2023-02-05T22:26:48.292Z,-6.48
2023-02-05T22:29:20.508Z,-6.54
2023-02-05T22:31:51.615Z,-6.45
2023-02-05T22:34:18.764Z,-6.45
2023-02-05T22:36:45.561Z,-6.51
2023-02-05T22:39:12.642Z,-6.45
2023-02-05T22:41:41.038Z,-6.44
2023-02-05T22:44:08.766Z,-6.41
2023-02-05T22:46:37.840Z,-6.39
2023-02-05T22:49:05.130Z,-6.41
2023-02-05T22:51:34.108Z,-6.38
2023-02-05T22:54:01.397Z,-6.38
2023-02-05T22:56:28.815Z,-6.30
2023-02-05T22:58:55.867Z,-6.35
2023-02-05T23:01:27.135Z,-6.32
2023-02-05T23:03:54.585Z,-6.23
2023-02-05T23:06:22.857Z,-6.32
2023-02-05T23:08:51.494Z,-6.40
2023-02-05T23:11:18.801Z,-6.33
2023-02-05T23:13:45.628Z,-6.50
2023-02-05T23:16:14.218Z,-6.51
2023-02-05T23:18:42.040Z,-6.57
2023-02-05T23:21:09.791Z,-6.52
2023-02-05T23:23:36.610Z,-6.49
2023-02-05T23:26:07.681Z,-6.43
2023-02-05T23:28:34.715Z,-6.21
2023-02-05T23:31:01.643Z,-6.30
2023-02-05T23:33:28.679Z,-6.33
2023-02-05T23:35:55.503Z,-6.37
2023-02-05T23:38:25.156Z,-6.32
2023-02-05T23:40:56.064Z,-6.16
2023-02-05T23:43:23.240Z,-6.16
2023-02-05T23:45:50.660Z,-6.17
2023-02-05T23:48:17.967Z,-6.08
2023-02-05T23:50:45.300Z,-6.08
2023-02-05T23:53:12.254Z,-6.09
2023-02-05T23:55:40.177Z,-6.05
2023-02-05T23:58:07.633Z,-6.08
